Terminal Aerodrome Forecast
Issued by NWS

Home | Current Version | Previous Version | Text Only | Print | Product List | Glossary On
Versions: 1 2 3 4 5 6 7 8 9 10 11 12 13 14 15 16
000
FTUS45 KTFX 260520
TAFCTB
TAF
KCTB 260520Z 2606/2706 29006KT P6SM BKN050
     FM260900 30008KT P6SM -RA SCT025 OVC050
     FM261400 30006KT P6SM VCSH BKN035
     FM261800 35007KT P6SM SCT060 BKN100
     FM270000 02006KT P6SM OVC080=

USA.gov is the U.S. government's official web portal to all federal, state and local government web resources and services.